Time;durP1;ratioP1;P1;durP2;ratioP2;P2;SDS_P1;SDS_P2;PMS_P1;PMS_P2;Temp;Humidity;BMP_temperature;BMP_pressure;BME280_temperature;BME280_humidity;BME280_pressure;Samples;Min_cycle;Max_cycle;Signal;HPM_P1;HPM_P2
2022/06/20 00:02:12;;;;;;;8.55;1.10;;;14.40;99.90;;;;;;5034633;28;20131;-85
2022/06/20 00:05:00;;;;;;;;;;;14.40;99.90;;;;;;5053865;28;20144;-82
2022/06/20 00:11:50;;;;;;;7.00;1.35;;;14.30;99.90;;;;;;5045394;28;20094;-83
2022/06/20 00:14:37;;;;;;;11.93;2.75;;;14.30;99.90;;;;;;5054161;28;20060;-85
2022/06/20 00:17:23;;;;;;;5.32;1.00;;;14.30;99.90;;;;;;5053313;28;20052;-82
2022/06/20 00:20:11;;;;;;;7.25;1.17;;;14.30;99.90;;;;;;5043839;28;20503;-83
2022/06/20 00:22:57;;;;;;;12.73;2.63;;;14.30;99.90;;;;;;5035103;28;20140;-85
2022/06/20 00:25:44;;;;;;;9.20;1.33;;;14.20;99.90;;;;;;5038553;28;20044;-86
2022/06/20 00:28:30;;;;;;;6.72;1.15;;;14.20;99.90;;;;;;5039226;28;20049;-83
2022/06/20 00:31:17;;;;;;;6.30;1.48;;;14.20;99.90;;;;;;5036246;28;20052;-82
2022/06/20 00:34:03;;;;;;;7.00;1.50;;;14.20;99.90;;;;;;5039747;28;20052;-82
2022/06/20 00:36:49;;;;;;;7.40;1.48;;;14.10;99.90;;;;;;5021129;28;20088;-88
2022/06/20 00:39:36;;;;;;;7.47;1.10;;;14.10;99.90;;;;;;5054959;28;20055;-86
2022/06/20 00:42:24;;;;;;;4.03;1.08;;;14.10;99.90;;;;;;5049390;28;20052;-85
2022/06/20 00:45:12;;;;;;;9.25;2.45;;;14.00;99.90;;;;;;5044807;28;20057;-85
2022/06/20 00:48:06;;;;;;;7.43;1.45;;;14.10;99.90;;;;;;5035775;28;20500;-87
2022/06/20 00:50:59;;;;;;;9.43;1.42;;;14.10;99.90;;;;;;5052926;28;20049;-86
2022/06/20 00:53:58;;;;;;;6.13;1.48;;;14.10;99.90;;;;;;5053194;28;20145;-84
2022/06/20 00:57:06;;;;;;;12.00;1.60;;;14.10;99.90;;;;;;5021287;28;20052;-83
2022/06/20 01:00:00;;;;;;;10.60;1.73;;;14.10;99.90;;;;;;5042934;28;20055;-85
2022/06/20 01:02:55;;;;;;;9.80;1.83;;;14.10;99.90;;;;;;5021701;28;20071;-87
2022/06/20 01:05:55;;;;;;;8.02;1.48;;;14.10;99.90;;;;;;5052457;28;20057;-86
2022/06/20 01:08:49;;;;;;;4.88;1.30;;;14.20;99.90;;;;;;5033981;28;20068;-84
2022/06/20 01:11:49;;;;;;;7.43;1.65;;;14.10;99.90;;;;;;5037319;28;20052;-83
2022/06/20 01:14:38;;;;;;;10.38;1.70;;;14.10;99.90;;;;;;5051420;28;20064;-81
2022/06/20 01:17:32;;;;;;;6.40;1.77;;;14.10;99.90;;;;;;5034887;28;20088;-85
2022/06/20 01:20:21;;;;;;;8.88;1.98;;;14.00;99.90;;;;;;5040555;28;20450;-81
2022/06/20 01:23:23;;;;;;;6.28;1.80;;;13.90;99.90;;;;;;5052406;28;20060;-83
2022/06/20 01:26:28;;;;;;;10.30;2.10;;;13.90;99.90;;;;;;5052241;28;20041;-85
2022/06/20 01:29:15;;;;;;;10.82;2.00;;;13.90;99.90;;;;;;5030089;28;20102;-88
2022/06/20 01:32:04;;;;;;;8.40;2.20;;;13.90;99.90;;;;;;5034359;28;20049;-85
2022/06/20 01:34:51;;;;;;;11.82;2.20;;;13.90;99.90;;;;;;5035471;28;20079;-84
2022/06/20 01:37:42;;;;;;;12.18;2.35;;;13.90;99.90;;;;;;5037243;28;20060;-85
2022/06/20 01:40:29;;;;;;;8.85;2.13;;;13.90;99.90;;;;;;5057984;28;20470;-86
2022/06/20 01:43:15;;;;;;;6.22;1.50;;;13.90;99.90;;;;;;5038078;28;20045;-82
2022/06/20 01:46:09;;;;;;;11.65;2.20;;;13.80;99.90;;;;;;5033951;28;20053;-83
2022/06/20 01:48:59;;;;;;;10.02;2.80;;;13.80;99.90;;;;;;5033958;28;20045;-82
2022/06/20 01:51:57;;;;;;;13.23;2.40;;;13.80;99.90;;;;;;5020546;28;20114;-84
2022/06/20 01:54:48;;;;;;;9.35;2.33;;;13.70;99.90;;;;;;5051398;28;20511;-83
2022/06/20 01:57:38;;;;;;;9.98;2.63;;;13.70;99.90;;;;;;5054711;28;20116;-84
2022/06/20 02:00:25;;;;;;;7.65;2.38;;;13.70;99.90;;;;;;5051402;28;20052;-83
2022/06/20 02:03:16;;;;;;;12.25;3.13;;;13.70;99.90;;;;;;5051494;28;20050;-86
2022/06/20 02:06:04;;;;;;;10.70;2.40;;;13.60;99.90;;;;;;5047171;28;20131;-83
2022/06/20 02:08:53;;;;;;;9.85;2.53;;;13.60;99.90;;;;;;5033619;28;20045;-87
2022/06/20 02:11:42;;;;;;;9.13;3.00;;;13.60;99.90;;;;;;5033809;28;20092;-86
2022/06/20 02:14:35;;;;;;;8.85;2.22;;;13.60;99.90;;;;;;5037278;28;20056;-83
2022/06/20 02:17:35;;;;;;;11.52;2.15;;;13.60;99.90;;;;;;5033406;28;20053;-90
2022/06/20 02:20:31;;;;;;;12.52;2.40;;;13.60;99.90;;;;;;5056512;28;20057;-84
2022/06/20 02:23:25;;;;;;;;;;;13.60;99.90;;;;;;5033971;28;20049;-82
2022/06/20 02:26:12;;;;;;;6.57;1.63;;;13.60;99.90;;;;;;5051052;28;19925;-86
2022/06/20 02:29:28;;;;;;;9.52;2.20;;;13.60;99.90;;;;;;5051512;28;20503;-81
2022/06/20 02:32:43;;;;;;;10.02;2.22;;;13.70;99.90;;;;;;5051622;28;20045;-85
2022/06/20 02:35:30;;;;;;;14.02;3.42;;;13.70;99.90;;;;;;5050180;28;20044;-82
2022/06/20 02:38:16;;;;;;;12.07;2.53;;;13.80;99.90;;;;;;5033429;28;20045;-84
2022/06/20 02:41:03;;;;;;;11.30;2.63;;;13.80;99.90;;;;;;5050769;28;20048;-85
2022/06/20 02:44:01;;;;;;;11.20;2.90;;;13.80;99.90;;;;;;5051272;28;20397;-82
2022/06/20 02:46:51;;;;;;;10.18;2.75;;;13.70;99.90;;;;;;5032690;28;20060;-87
2022/06/20 02:49:38;;;;;;;8.70;2.95;;;13.70;99.90;;;;;;5050924;28;20049;-88
2022/06/20 02:52:32;;;;;;;10.57;2.05;;;13.70;99.90;;;;;;5035033;28;20055;-82
2022/06/20 02:55:20;;;;;;;14.30;2.28;;;13.60;99.90;;;;;;5056710;28;20056;-86
2022/06/20 02:58:12;;;;;;;8.15;2.55;;;13.70;99.90;;;;;;5036197;28;20049;-83
2022/06/20 03:01:34;;;;;;;9.85;2.30;;;13.70;99.90;;;;;;5058261;28;20045;-85
2022/06/20 03:04:24;;;;;;;14.68;2.20;;;13.70;99.90;;;;;;5048115;28;20550;-84
2022/06/20 03:07:21;;;;;;;8.68;2.55;;;13.80;99.90;;;;;;5056652;28;20056;-88
2022/06/20 03:10:41;;;;;;;11.20;2.55;;;13.80;99.90;;;;;;5062717;28;20045;-83
2022/06/20 03:13:28;;;;;;;9.32;2.90;;;13.70;99.90;;;;;;5039524;28;20076;-85
2022/06/20 03:16:15;;;;;;;10.00;3.00;;;13.70;99.90;;;;;;5052719;28;20072;-87
2022/06/20 03:19:02;;;;;;;10.98;2.78;;;13.60;99.90;;;;;;5035736;28;20056;-81
2022/06/20 03:21:48;;;;;;;9.43;2.92;;;13.60;99.90;;;;;;5038267;28;20041;-83
2022/06/20 03:24:36;;;;;;;13.15;2.75;;;13.50;99.90;;;;;;5054026;28;20396;-86
2022/06/20 03:27:27;;;;;;;11.45;2.70;;;13.50;99.90;;;;;;5022586;28;20189;-86
2022/06/20 03:30:25;;;;;;;15.27;3.35;;;13.50;99.90;;;;;;5036768;28;20088;-85
2022/06/20 03:33:16;;;;;;;14.55;3.00;;;13.50;99.90;;;;;;5036874;28;20061;-83
2022/06/20 03:36:11;;;;;;;15.20;3.35;;;13.60;99.90;;;;;;5033719;28;20088;-86
2022/06/20 03:38:57;;;;;;;11.25;3.92;;;13.70;99.90;;;;;;5051807;28;20460;-84
2022/06/20 03:41:43;;;;;;;11.70;3.58;;;13.70;99.90;;;;;;5052005;28;20049;-81
2022/06/20 03:44:39;;;;;;;12.20;3.58;;;13.70;99.90;;;;;;5032613;28;20445;-83
2022/06/20 03:47:33;;;;;;;12.90;3.35;;;13.70;99.90;;;;;;5037544;28;20068;-85
2022/06/20 03:50:28;;;;;;;12.77;3.22;;;13.70;99.90;;;;;;5055987;28;20056;-83
2022/06/20 03:53:30;;;;;;;14.13;3.47;;;13.60;99.90;;;;;;5042659;28;20057;-87
2022/06/20 03:56:23;;;;;;;12.40;3.03;;;13.60;99.90;;;;;;5036678;28;20044;-83
2022/06/20 03:59:24;;;;;;;10.65;3.97;;;13.60;99.90;;;;;;5038467;28;20049;-81
2022/06/20 04:02:26;;;;;;;12.82;3.75;;;13.60;99.90;;;;;;5021983;28;20052;-83
2022/06/20 04:05:22;;;;;;;9.10;2.95;;;13.70;99.90;;;;;;5040205;28;20056;-84
2022/06/20 04:08:18;;;;;;;14.38;2.92;;;13.70;99.90;;;;;;5020065;28;20088;-83
2022/06/20 04:11:06;;;;;;;10.43;3.10;;;13.70;99.90;;;;;;5038144;28;20050;-87
2022/06/20 04:13:55;;;;;;;10.93;3.53;;;13.70;99.90;;;;;;5019554;28;20052;-88
2022/06/20 04:16:49;;;;;;;12.15;3.15;;;13.70;99.90;;;;;;5027515;28;20140;-87
2022/06/20 04:19:39;;;;;;;12.75;3.67;;;13.70;99.90;;;;;;5003758;28;20052;-87
2022/06/20 04:22:31;;;;;;;18.35;4.03;;;13.70;99.90;;;;;;5004110;28;20049;-87
2022/06/20 04:25:38;;;;;;;13.20;3.08;;;13.80;99.90;;;;;;5021030;28;20508;-87
2022/06/20 04:28:32;;;;;;;17.23;3.85;;;13.80;99.90;;;;;;5036637;28;20049;-85
2022/06/20 04:31:23;;;;;;;14.65;4.75;;;14.00;99.90;;;;;;5034885;28;20081;-87
2022/06/20 04:34:40;;;;;;;12.27;3.80;;;14.10;99.90;;;;;;5017275;28;20053;-85
2022/06/20 04:37:30;;;;;;;17.00;4.72;;;14.20;99.90;;;;;;5016908;28;20057;-84
2022/06/20 04:40:27;;;;;;;16.65;3.35;;;14.30;99.90;;;;;;5016840;28;20049;-89
2022/06/20 04:43:30;;;;;;;7.63;2.10;;;14.30;99.90;;;;;;5033870;28;20056;-85
2022/06/20 04:46:24;;;;;;;11.45;2.45;;;14.30;99.90;;;;;;5034124;28;20461;-88
2022/06/20 04:49:16;;;;;;;11.85;2.17;;;14.30;99.90;;;;;;5034610;28;20112;-88
2022/06/20 04:52:02;;;;;;;13.30;2.60;;;14.30;99.90;;;;;;5016909;28;20064;-88
2022/06/20 04:54:48;;;;;;;10.07;2.30;;;14.40;99.90;;;;;;5033378;28;20050;-85
2022/06/20 04:57:35;;;;;;;11.88;2.78;;;14.40;99.90;;;;;;5045397;28;20057;-89
2022/06/20 05:00:28;;;;;;;12.07;2.40;;;14.50;99.90;;;;;;5055300;28;20049;-86
2022/06/20 05:03:18;;;;;;;14.88;2.97;;;14.60;99.90;;;;;;5055121;28;20041;-87
2022/06/20 05:06:09;;;;;;;10.00;2.60;;;14.60;99.90;;;;;;5035343;28;20052;-87
2022/06/20 05:09:06;;;;;;;15.15;3.25;;;14.70;99.90;;;;;;5052588;28;20040;-85
2022/06/20 05:12:02;;;;;;;11.48;2.83;;;14.70;99.90;;;;;;5029090;28;20072;-84
2022/06/20 05:14:54;;;;;;;14.88;3.08;;;14.80;99.90;;;;;;5034731;28;20095;-85
2022/06/20 05:17:43;;;;;;;9.95;3.33;;;14.90;99.90;;;;;;5021801;28;20120;-83
2022/06/20 05:20:34;;;;;;;17.05;3.45;;;15.10;99.90;;;;;;5034527;28;20102;-81
2022/06/20 05:23:41;;;;;;;9.48;2.60;;;15.30;99.90;;;;;;5036221;28;20147;-85
2022/06/20 05:26:33;;;;;;;14.10;3.13;;;15.30;99.90;;;;;;5054612;28;20056;-85
2022/06/20 05:29:33;;;;;;;11.82;2.63;;;15.30;99.90;;;;;;5052799;28;20091;-85
2022/06/20 05:32:41;;;;;;;10.00;2.20;;;15.30;99.90;;;;;;5054076;28;20424;-86
2022/06/20 05:35:39;;;;;;;11.55;2.10;;;15.20;99.90;;;;;;5022918;28;20539;-83
2022/06/20 05:38:53;;;;;;;9.75;2.95;;;15.20;99.90;;;;;;5034935;28;20080;-86
2022/06/20 05:41:40;;;;;;;10.63;2.33;;;15.30;99.90;;;;;;5053970;28;20048;-85
2022/06/20 05:44:26;;;;;;;11.20;2.83;;;15.20;99.90;;;;;;5053932;28;20045;-86
2022/06/20 05:47:26;;;;;;;8.13;2.70;;;15.40;99.90;;;;;;5053549;28;20045;-83
2022/06/20 05:50:12;;;;;;;15.38;2.83;;;15.50;99.90;;;;;;5035445;28;20053;-84
2022/06/20 05:53:01;;;;;;;17.08;4.22;;;15.50;99.90;;;;;;5052199;28;20092;-85
2022/06/20 05:55:48;;;;;;;9.88;2.78;;;15.60;99.90;;;;;;5034120;28;20056;-84
2022/06/20 05:58:37;;;;;;;11.80;2.80;;;15.80;99.90;;;;;;5033540;28;20265;-83
2022/06/20 06:01:32;;;;;;;10.60;3.03;;;15.90;99.90;;;;;;5036882;28;20052;-83
2022/06/20 06:04:31;;;;;;;7.22;2.65;;;15.90;99.90;;;;;;5050783;28;20416;-85
2022/06/20 06:07:26;;;;;;;11.82;2.80;;;15.90;99.90;;;;;;5052665;28;20041;-83
2022/06/20 06:10:52;;;;;;;10.32;2.70;;;15.90;99.90;;;;;;5038160;28;20046;-83
2022/06/20 06:13:58;;;;;;;7.93;2.42;;;15.80;99.90;;;;;;5039904;28;20516;-86
2022/06/20 06:17:09;;;;;;;11.10;2.15;;;15.90;99.90;;;;;;5037364;28;20045;-85
2022/06/20 06:19:57;;;;;;;9.50;2.85;;;16.00;99.90;;;;;;5048476;28;20102;-82
2022/06/20 06:22:46;;;;;;;10.52;3.30;;;16.10;99.90;;;;;;5051249;28;20064;-83
2022/06/20 06:25:39;;;;;;;11.52;2.30;;;16.30;99.90;;;;;;5051100;28;20048;-84
2022/06/20 06:28:26;;;;;;;13.93;2.90;;;16.50;99.90;;;;;;5019690;28;20089;-83
2022/06/20 06:31:28;;;;;;;11.38;2.33;;;16.50;99.90;;;;;;5050924;28;20045;-85
2022/06/20 06:34:39;;;;;;;12.73;3.03;;;16.70;99.90;;;;;;5051824;28;20118;-83
2022/06/20 06:37:37;;;;;;;8.45;1.95;;;16.70;99.90;;;;;;5032977;28;20078;-85
2022/06/20 06:40:43;;;;;;;9.15;2.30;;;16.80;99.90;;;;;;5033293;28;20092;-83
2022/06/20 06:43:39;;;;;;;7.45;1.77;;;16.70;99.90;;;;;;5032438;28;20500;-84
2022/06/20 06:46:41;;;;;;;9.20;2.00;;;16.60;99.90;;;;;;5032654;28;20041;-86
2022/06/20 06:49:45;;;;;;;10.18;1.98;;;16.50;99.90;;;;;;5019462;28;20077;-82
2022/06/20 06:52:45;;;;;;;12.25;2.97;;;16.30;99.90;;;;;;5032455;28;20210;-85
2022/06/20 06:55:55;;;;;;;5.60;1.52;;;16.20;99.90;;;;;;5032082;28;20064;-85
2022/06/20 06:58:58;;;;;;;7.40;1.55;;;16.10;99.90;;;;;;5050085;28;20056;-83
2022/06/20 07:01:51;;;;;;;7.85;2.08;;;16.40;99.90;;;;;;5052030;28;20488;-86
2022/06/20 07:04:48;;;;;;;9.18;1.98;;;16.60;99.90;;;;;;5033911;28;20060;-82
2022/06/20 07:08:13;;;;;;;9.32;2.05;;;16.80;99.90;;;;;;5050821;28;20138;-84
2022/06/20 07:11:06;;;;;;;5.93;1.70;;;16.90;99.90;;;;;;5034845;28;20041;-82
2022/06/20 07:14:00;;;;;;;4.40;1.40;;;17.00;99.90;;;;;;5050556;28;20060;-86
2022/06/20 07:17:19;;;;;;;9.38;1.85;;;17.30;99.90;;;;;;5033273;28;20056;-85
2022/06/20 07:20:06;;;;;;;8.32;1.70;;;17.50;99.90;;;;;;5026431;28;20147;-83
2022/06/20 07:22:52;;;;;;;6.32;1.60;;;17.60;99.90;;;;;;5052944;28;20071;-84
2022/06/20 07:25:44;;;;;;;6.03;1.77;;;17.70;99.90;;;;;;5053963;28;20049;-81
2022/06/20 07:28:35;;;;;;;6.97;1.90;;;17.90;99.90;;;;;;5051412;28;20045;-86
2022/06/20 07:31:33;;;;;;;6.53;1.50;;;17.90;99.90;;;;;;5050190;28;20511;-81
2022/06/20 07:34:45;;;;;;;6.22;1.70;;;18.10;99.90;;;;;;5051377;28;20049;-82
2022/06/20 07:37:42;;;;;;;6.47;1.67;;;18.10;99.90;;;;;;5032688;28;20060;-82
2022/06/20 07:40:32;;;;;;;7.57;1.77;;;18.10;99.90;;;;;;5050102;28;20056;-84
2022/06/20 07:43:25;;;;;;;5.88;1.90;;;18.00;99.90;;;;;;5050304;28;20505;-82
2022/06/20 07:46:25;;;;;;;7.85;2.30;;;18.00;99.90;;;;;;5049168;28;20878;-84
2022/06/20 07:49:28;;;;;;;5.50;1.95;;;18.00;99.90;;;;;;5049620;28;20041;-82
2022/06/20 07:52:28;;;;;;;12.40;2.60;;;17.90;99.90;;;;;;5049158;28;20064;-84
2022/06/20 07:55:26;;;;;;;11.95;1.80;;;18.00;99.90;;;;;;5032860;28;20500;-82
2022/06/20 07:58:22;;;;;;;8.95;1.83;;;18.10;99.90;;;;;;5050097;28;20071;-83
2022/06/20 08:01:28;;;;;;;12.40;2.42;;;18.20;99.90;;;;;;5017932;28;20564;-81
2022/06/20 08:04:18;;;;;;;7.88;1.92;;;18.30;99.90;;;;;;5049006;28;20159;-81
2022/06/20 08:07:20;;;;;;;7.03;1.90;;;18.40;99.90;;;;;;5031512;28;20060;-81
2022/06/20 08:10:10;;;;;;;5.88;2.22;;;18.50;99.90;;;;;;5050226;28;20493;-85
2022/06/20 08:13:07;;;;;;;5.47;1.65;;;18.60;99.90;;;;;;5032130;28;20053;-83
2022/06/20 08:16:02;;;;;;;5.68;1.75;;;18.50;99.90;;;;;;5050415;28;20049;-85
2022/06/20 08:18:48;;;;;;;8.23;1.73;;;18.70;99.70;;;;;;5034720;28;20057;-81
2022/06/20 08:21:39;;;;;;;4.80;1.20;;;18.90;99.30;;;;;;5020996;28;20045;-80
2022/06/20 08:24:35;;;;;;;5.63;1.35;;;18.90;98.70;;;;;;5048958;28;20044;-81
2022/06/20 08:27:40;;;;;;;9.63;1.58;;;19.30;98.30;;;;;;5033288;28;20049;-81
2022/06/20 08:30:33;;;;;;;5.82;1.38;;;19.30;97.80;;;;;;5050511;28;20049;-82
2022/06/20 08:33:28;;;;;;;5.60;1.63;;;19.40;98.40;;;;;;5033090;28;20049;-82
2022/06/20 08:36:27;;;;;;;7.07;1.80;;;19.60;98.20;;;;;;5053665;28;20048;-82
2022/06/20 08:39:34;;;;;;;8.90;1.98;;;19.70;98.10;;;;;;5034517;28;20084;-85
2022/06/20 08:42:32;;;;;;;6.10;1.65;;;20.00;97.70;;;;;;5053266;28;20041;-82
2022/06/20 08:45:25;;;;;;;8.38;1.52;;;20.00;97.60;;;;;;5053321;28;20049;-83
2022/06/20 08:48:39;;;;;;;7.28;1.83;;;20.10;97.60;;;;;;5039929;28;20044;-83
2022/06/20 08:52:08;;;;;;;5.70;1.23;;;20.10;97.10;;;;;;5052849;28;20044;-83
2022/06/20 08:55:09;;;;;;;3.53;0.98;;;20.30;95.90;;;;;;5053245;28;20053;-83
2022/06/20 08:58:19;;;;;;;8.45;1.83;;;20.60;96.10;;;;;;5052558;28;20059;-80
2022/06/20 09:01:31;;;;;;;6.45;1.20;;;20.80;95.50;;;;;;5035097;28;20484;-84
2022/06/20 09:04:53;;;;;;;6.65;1.20;;;20.90;95.30;;;;;;5034557;28;20099;-82
2022/06/20 09:07:50;;;;;;;8.07;1.67;;;21.00;95.00;;;;;;5020874;28;20448;-79
2022/06/20 09:11:14;;;;;;;6.03;1.40;;;20.90;94.60;;;;;;5037645;28;20059;-79
2022/06/20 09:14:20;;;;;;;3.30;1.23;;;21.00;93.90;;;;;;5038669;28;20512;-86
2022/06/20 09:17:18;;;;;;;8.23;1.50;;;21.10;94.80;;;;;;5055906;28;20494;-80
2022/06/20 09:20:19;;;;;;;5.90;1.25;;;20.80;95.00;;;;;;5053081;28;20063;-81
2022/06/20 09:23:26;;;;;;;7.50;1.88;;;20.80;96.20;;;;;;5052436;28;20063;-78
2022/06/20 09:26:39;;;;;;;5.05;1.10;;;20.90;95.90;;;;;;5033948;28;20515;-80
2022/06/20 09:29:49;;;;;;;6.80;1.30;;;21.00;94.70;;;;;;5052851;28;20048;-80
2022/06/20 09:32:54;;;;;;;7.28;2.58;;;21.10;94.80;;;;;;5033842;28;20052;-80
2022/06/20 09:36:09;;;;;;;9.15;1.70;;;21.10;94.90;;;;;;5020487;28;20049;-81
2022/06/20 09:39:08;;;;;;;5.82;1.65;;;21.00;94.80;;;;;;5050465;28;20140;-82
2022/06/20 09:42:24;;;;;;;5.57;1.33;;;21.00;94.60;;;;;;5051916;28;20056;-81
2022/06/20 09:45:16;;;;;;;;;;;21.00;94.90;;;;;;5033473;28;20049;-82
2022/06/20 09:48:26;;;;;;;7.35;1.55;;;21.10;94.70;;;;;;5034719;28;19921;-83
2022/06/20 09:51:43;;;;;;;9.18;2.03;;;21.20;94.20;;;;;;5034172;28;20049;-82
2022/06/20 09:54:48;;;;;;;7.30;1.60;;;21.70;94.20;;;;;;5052898;28;20377;-79
2022/06/20 09:57:56;;;;;;;11.95;1.80;;;22.00;94.30;;;;;;5051546;28;20144;-81
2022/06/20 10:01:05;;;;;;;6.40;1.85;;;21.90;93.70;;;;;;5033679;28;20049;-82
2022/06/20 10:04:29;;;;;;;4.88;1.40;;;21.80;92.60;;;;;;5033283;28;20477;-81
2022/06/20 10:07:37;;;;;;;8.75;1.48;;;21.60;93.00;;;;;;5026898;28;20523;-81
2022/06/20 10:10:50;;;;;;;6.22;1.73;;;21.90;93.10;;;;;;5034496;28;20110;-80
2022/06/20 10:13:58;;;;;;;7.07;1.45;;;22.10;92.70;;;;;;5032407;28;20053;-81
2022/06/20 10:17:05;;;;;;;5.35;1.50;;;22.20;92.80;;;;;;5036922;28;20080;-79
2022/06/20 10:19:58;;;;;;;6.68;1.88;;;22.10;92.90;;;;;;5051315;28;20476;-83
2022/06/20 10:23:12;;;;;;;7.38;1.63;;;22.20;92.30;;;;;;5051568;28;20401;-81
2022/06/20 10:26:32;;;;;;;9.57;1.67;;;22.20;92.20;;;;;;5037577;28;20048;-84
2022/06/20 10:29:33;;;;;;;7.78;1.48;;;22.10;91.70;;;;;;5050494;28;20056;-85
2022/06/20 10:32:43;;;;;;;5.70;1.75;;;22.40;92.50;;;;;;5034858;28;20048;-80
2022/06/20 10:35:44;;;;;;;4.65;1.70;;;22.70;92.20;;;;;;5032489;28;20094;-81
2022/06/20 10:38:36;;;;;;;5.78;1.98;;;22.50;92.00;;;;;;5032377;28;20057;-79
2022/06/20 10:41:34;;;;;;;5.28;1.30;;;22.70;91.70;;;;;;5050793;28;20087;-80
2022/06/20 10:44:46;;;;;;;5.03;1.63;;;22.70;91.00;;;;;;5051753;28;20458;-81
2022/06/20 10:48:13;;;;;;;6.60;1.30;;;22.90;90.90;;;;;;5051971;28;20064;-81
2022/06/20 10:51:09;;;;;;;3.83;1.40;;;22.70;91.50;;;;;;4950423;29;20069;-81
2022/06/20 10:54:16;;;;;;;6.68;1.73;;;23.00;91.90;;;;;;4935067;29;20062;-80
2022/06/20 10:57:30;;;;;;;9.05;1.85;;;23.00;91.20;;;;;;5049540;28;20154;-82
2022/06/20 11:00:20;;;;;;;5.15;1.33;;;23.20;91.50;;;;;;5050234;28;20629;-82
2022/06/20 11:03:34;;;;;;;5.28;1.60;;;23.20;92.00;;;;;;5051641;28;20049;-86
2022/06/20 11:06:32;;;;;;;9.25;1.70;;;23.10;91.90;;;;;;5037153;28;20544;-83
2022/06/20 11:09:26;;;;;;;6.75;1.55;;;23.20;92.10;;;;;;5051547;28;20141;-81
2022/06/20 11:12:22;;;;;;;5.97;1.52;;;22.80;91.50;;;;;;5050060;28;20049;-80
2022/06/20 11:15:32;;;;;;;8.35;1.85;;;22.80;91.00;;;;;;5035344;28;20095;-80
2022/06/20 11:18:18;;;;;;;5.95;1.67;;;23.00;92.10;;;;;;5050187;28;20053;-82
2022/06/20 11:21:17;;;;;;;5.25;1.40;;;22.90;92.00;;;;;;5050194;28;20048;-81
2022/06/20 11:24:20;;;;;;;6.25;1.40;;;22.80;91.00;;;;;;5049968;28;20172;-83
2022/06/20 11:27:21;;;;;;;7.47;1.60;;;22.20;91.50;;;;;;5032133;28;20045;-80
2022/06/20 11:30:08;;;;;;;8.43;1.40;;;21.90;92.20;;;;;;5049287;28;20512;-81
2022/06/20 11:33:17;;;;;;;6.32;1.85;;;21.90;92.70;;;;;;5049999;28;20049;-81
2022/06/20 11:36:10;;;;;;;5.70;1.20;;;22.30;91.80;;;;;;5032034;28;20060;-81
2022/06/20 11:39:17;;;;;;;7.40;1.50;;;22.70;91.90;;;;;;5019314;28;20044;-84
2022/06/20 11:42:04;;;;;;;5.00;1.33;;;22.80;91.20;;;;;;5049707;28;20452;-79
2022/06/20 11:44:56;;;;;;;4.50;1.67;;;23.00;91.40;;;;;;5032189;28;20053;-82
2022/06/20 11:47:57;;;;;;;7.80;1.60;;;23.00;91.10;;;;;;5050166;28;20053;-82
2022/06/20 11:51:05;;;;;;;9.95;1.80;;;22.80;91.20;;;;;;5031242;28;20067;-80
2022/06/20 11:54:07;;;;;;;5.88;1.40;;;23.00;91.60;;;;;;5032076;28;20053;-82
2022/06/20 11:57:17;;;;;;;4.32;1.17;;;23.40;90.20;;;;;;5050187;28;20684;-83
2022/06/20 12:00:12;;;;;;;6.10;1.30;;;23.20;90.50;;;;;;5051058;28;20053;-86
2022/06/20 12:03:13;;;;;;;4.93;1.10;;;23.10;90.80;;;;;;5049376;28;20059;-83
2022/06/20 12:06:02;;;;;;;5.28;1.33;;;23.00;90.00;;;;;;5050002;28;20118;-84
2022/06/20 12:09:14;;;;;;;9.38;1.77;;;23.20;89.90;;;;;;5053717;28;20447;-82
2022/06/20 12:12:48;;;;;;;8.48;1.52;;;23.10;90.70;;;;;;5052991;28;20048;-81
2022/06/20 12:15:43;;;;;;;6.45;1.35;;;23.40;90.70;;;;;;4970961;28;20418;-85
2022/06/20 12:18:39;;;;;;;8.07;1.58;;;23.30;90.70;;;;;;4956496;28;20055;-82
2022/06/20 12:24:30;;;;;;;8.75;2.38;;;24.00;89.90;;;;;;5053154;28;20463;-85
2022/06/20 12:27:19;;;;;;;10.02;1.48;;;23.70;90.00;;;;;;5053020;28;20344;-82
2022/06/20 12:30:12;;;;;;;6.45;1.00;;;24.00;88.00;;;;;;5055222;28;20102;-83
2022/06/20 12:32:59;;;;;;;4.40;1.25;;;23.70;87.20;;;;;;5053101;28;20057;-79
2022/06/20 12:35:52;;;;;;;4.85;1.33;;;23.40;90.00;;;;;;5054348;28;20045;-81
2022/06/20 12:38:54;;;;;;;6.00;1.80;;;23.10;90.00;;;;;;5036519;28;20053;-81
2022/06/20 12:41:44;;;;;;;3.78;1.15;;;23.00;90.30;;;;;;5054488;28;20076;-80
2022/06/20 12:44:45;;;;;;;5.45;1.75;;;22.50;91.00;;;;;;5035661;28;20056;-81
2022/06/20 12:47:34;;;;;;;6.90;1.85;;;22.70;91.40;;;;;;5052258;28;20544;-82
2022/06/20 12:50:41;;;;;;;6.40;1.55;;;22.80;90.10;;;;;;5053045;28;20052;-80
2022/06/20 12:53:39;;;;;;;5.05;1.60;;;23.00;90.50;;;;;;5038144;28;20127;-80
2022/06/20 12:56:28;;;;;;;4.25;1.55;;;23.10;89.50;;;;;;5052860;28;20510;-82
2022/06/20 12:59:33;;;;;;;5.57;1.10;;;23.50;86.80;;;;;;5053601;28;20159;-80
2022/06/20 13:02:37;;;;;;;6.23;1.30;;;23.80;88.70;;;;;;5035997;28;20057;-82
2022/06/20 13:05:46;;;;;;;5.38;1.48;;;24.50;86.20;;;;;;5054034;28;20049;-81
2022/06/20 13:09:11;;;;;;;6.30;1.33;;;24.30;85.50;;;;;;5054037;28;20052;-84
2022/06/20 13:12:32;;;;;;;4.40;1.77;;;24.70;83.80;;;;;;5051749;28;20052;-82
2022/06/20 13:15:24;;;;;;;4.18;1.25;;;24.50;81.10;;;;;;5046989;28;20142;-85
2022/06/20 13:18:17;;;;;;;6.22;1.27;;;23.70;82.60;;;;;;5053503;28;20049;-82
2022/06/20 13:21:29;;;;;;;6.10;1.20;;;23.50;84.00;;;;;;5053098;28;20052;-81
2022/06/20 13:24:24;;;;;;;6.70;1.75;;;23.70;85.30;;;;;;5034207;28;20059;-82
2022/06/20 13:27:24;;;;;;;5.68;1.45;;;23.40;86.40;;;;;;5034862;28;20102;-82
2022/06/20 13:30:50;;;;;;;5.85;1.33;;;23.10;86.00;;;;;;5053533;28;20408;-80
2022/06/20 13:33:36;;;;;;;;;;;23.40;86.20;;;;;;5053491;28;20065;-79
2022/06/20 13:36:58;;;;;;;5.38;1.20;;;23.50;84.30;;;;;;5052384;28;20285;-79
2022/06/20 13:39:57;;;;;;;3.95;1.20;;;24.00;84.10;;;;;;5038709;28;20044;-82
2022/06/20 13:43:08;;;;;;;5.35;1.38;;;24.20;85.50;;;;;;5051690;28;20061;-81
2022/06/20 13:45:59;;;;;;;3.85;1.25;;;24.70;83.40;;;;;;5038966;28;20049;-80
2022/06/20 13:48:49;;;;;;;4.13;1.10;;;25.00;81.10;;;;;;5034316;28;20060;-80
2022/06/20 13:51:42;;;;;;;7.05;1.55;;;25.00;79.70;;;;;;5020880;28;20505;-79
2022/06/20 13:54:38;;;;;;;4.88;1.33;;;25.00;80.40;;;;;;5034652;28;20104;-82
2022/06/20 13:57:35;;;;;;;5.03;1.52;;;25.10;80.80;;;;;;5034400;28;20531;-80
2022/06/20 14:00:25;;;;;;;7.80;1.65;;;24.70;81.60;;;;;;5037192;28;20132;-79
2022/06/20 14:03:19;;;;;;;6.95;2.22;;;24.70;79.90;;;;;;5051902;28;20227;-82
2022/06/20 14:06:18;;;;;;;10.85;1.67;;;24.90;81.70;;;;;;5034124;28;20048;-84
2022/06/20 14:09:05;;;;;;;4.85;1.10;;;25.20;82.00;;;;;;5051916;28;20099;-81
2022/06/20 14:11:58;;;;;;;5.32;1.10;;;25.00;82.30;;;;;;5033146;28;20055;-80
2022/06/20 14:14:52;;;;;;;6.95;1.75;;;24.40;82.90;;;;;;5050901;28;20505;-81
2022/06/20 14:17:40;;;;;;;4.30;1.23;;;23.90;84.50;;;;;;5050340;28;20053;-79
2022/06/20 14:20:31;;;;;;;9.70;1.60;;;23.40;87.50;;;;;;5037919;28;20041;-80
2022/06/20 14:23:20;;;;;;;7.50;1.50;;;22.80;86.50;;;;;;5052382;28;20152;-78
2022/06/20 14:26:24;;;;;;;7.18;1.58;;;23.30;86.80;;;;;;5051955;28;20551;-80
2022/06/20 14:29:22;;;;;;;7.55;1.83;;;23.60;85.40;;;;;;5051762;28;20095;-80
2022/06/20 14:32:08;;;;;;;9.07;1.95;;;24.40;84.60;;;;;;5050927;28;20504;-81
2022/06/20 14:38:38;;;;;;;9.52;2.00;;;25.40;78.30;;;;;;5033480;28;20091;-82
2022/06/20 14:41:42;;;;;;;5.07;1.80;;;26.00;79.20;;;;;;5052519;28;20048;-80
2022/06/20 14:44:29;;;;;;;10.75;2.28;;;24.90;75.90;;;;;;5051865;28;20079;-80
2022/06/20 14:47:31;;;;;;;7.30;1.70;;;24.30;78.00;;;;;;5052276;28;20053;-81
2022/06/20 14:50:20;;;;;;;8.32;2.05;;;24.00;80.50;;;;;;5019959;28;20100;-80
2022/06/20 14:53:23;;;;;;;15.98;2.90;;;23.80;81.80;;;;;;5033043;28;20056;-80
2022/06/20 14:56:19;;;;;;;6.70;1.80;;;23.60;83.40;;;;;;5031676;28;20049;-80
2022/06/20 14:59:37;;;;;;;6.57;1.90;;;23.70;85.00;;;;;;5012426;28;20492;-82
2022/06/20 15:02:56;;;;;;;7.07;1.77;;;24.10;83.60;;;;;;5011796;28;20050;-81
2022/06/20 15:05:55;;;;;;;9.18;1.60;;;23.70;82.50;;;;;;5018991;28;20180;-82
2022/06/20 15:09:12;;;;;;;7.60;1.73;;;24.00;83.20;;;;;;5023057;28;20050;-82
2022/06/20 15:12:20;;;;;;;8.43;1.98;;;23.80;81.80;;;;;;5030813;28;20595;-81
2022/06/20 15:15:23;;;;;;;7.07;1.70;;;24.00;82.10;;;;;;5030201;28;20071;-81
2022/06/20 15:18:09;;;;;;;10.15;2.03;;;25.00;83.80;;;;;;5013198;28;20111;-80
2022/06/20 15:21:18;;;;;;;12.68;2.42;;;25.00;81.90;;;;;;5013678;28;20397;-80
2022/06/20 15:24:19;;;;;;;8.15;1.63;;;24.50;81.60;;;;;;4985175;28;20049;-82
2022/06/20 15:27:28;;;;;;;8.20;2.40;;;24.60;82.50;;;;;;5033160;28;20037;-83
2022/06/20 15:30:26;;;;;;;10.88;2.42;;;24.80;81.60;;;;;;5011506;28;20057;-81
2022/06/20 15:33:34;;;;;;;6.32;1.90;;;24.80;81.80;;;;;;5012605;28;20049;-82
2022/06/20 15:36:37;;;;;;;7.25;1.40;;;24.80;80.80;;;;;;5030208;28;20116;-82